sensor_id;sensor_type;location;lat;lon;timestamp;P1;durP1;ratioP1;P2;durP2;ratioP2
29466;SDS011;60968;37.490;-122.288;2022-09-03T00:01:47;16.17;;;10.38;;
29466;SDS011;60968;37.490;-122.288;2022-09-03T00:08:11;15.85;;;10.05;;
29466;SDS011;60968;37.490;-122.288;2022-09-03T00:11:24;24.30;;;11.02;;
29466;SDS011;60968;37.490;-122.288;2022-09-03T00:14:33;17.75;;;10.80;;
29466;SDS011;60968;37.490;-122.288;2022-09-03T00:17:41;17.85;;;10.73;;
29466;SDS011;60968;37.490;-122.288;2022-09-03T00:20:54;17.83;;;11.77;;
29466;SDS011;60968;37.490;-122.288;2022-09-03T00:24:10;20.60;;;12.18;;
29466;SDS011;60968;37.490;-122.288;2022-09-03T00:27:18;20.38;;;12.00;;
29466;SDS011;60968;37.490;-122.288;2022-09-03T00:30:22;20.47;;;12.23;;
29466;SDS011;60968;37.490;-122.288;2022-09-03T00:33:25;18.47;;;11.03;;
29466;SDS011;60968;37.490;-122.288;2022-09-03T00:36:43;22.10;;;11.83;;
29466;SDS011;60968;37.490;-122.288;2022-09-03T00:39:44;20.00;;;11.57;;
29466;SDS011;60968;37.490;-122.288;2022-09-03T00:46:06;19.93;;;11.50;;
29466;SDS011;60968;37.490;-122.288;2022-09-03T00:56:12;23.27;;;12.60;;
29466;SDS011;60968;37.490;-122.288;2022-09-03T01:06:56;27.73;;;14.70;;
29466;SDS011;60968;37.490;-122.288;2022-09-03T01:13:42;23.83;;;15.13;;
29466;SDS011;60968;37.490;-122.288;2022-09-03T01:30:06;36.90;;;23.20;;
29466;SDS011;60968;37.490;-122.288;2022-09-03T01:36:51;34.10;;;22.30;;
29466;SDS011;60968;37.490;-122.288;2022-09-03T01:40:27;34.87;;;21.60;;
29466;SDS011;60968;37.490;-122.288;2022-09-03T01:43:42;34.10;;;22.03;;
29466;SDS011;60968;37.490;-122.288;2022-09-03T01:47:01;35.70;;;22.50;;
29466;SDS011;60968;37.490;-122.288;2022-09-03T02:00:28;34.17;;;19.13;;
29466;SDS011;60968;37.490;-122.288;2022-09-03T02:03:34;30.53;;;20.10;;
29466;SDS011;60968;37.490;-122.288;2022-09-03T02:06:38;32.73;;;21.70;;
29466;SDS011;60968;37.490;-122.288;2022-09-03T02:09:41;31.27;;;21.27;;
29466;SDS011;60968;37.490;-122.288;2022-09-03T02:12:44;31.97;;;20.97;;
29466;SDS011;60968;37.490;-122.288;2022-09-03T02:16:10;31.43;;;21.97;;
29466;SDS011;60968;37.490;-122.288;2022-09-03T02:19:14;31.07;;;20.33;;
29466;SDS011;60968;37.490;-122.288;2022-09-03T02:22:18;29.77;;;19.03;;
29466;SDS011;60968;37.490;-122.288;2022-09-03T02:25:19;25.60;;;17.00;;
29466;SDS011;60968;37.490;-122.288;2022-09-03T02:28:22;29.43;;;19.23;;
29466;SDS011;60968;37.490;-122.288;2022-09-03T02:31:23;28.77;;;18.53;;
29466;SDS011;60968;37.490;-122.288;2022-09-03T02:34:24;29.23;;;18.93;;
29466;SDS011;60968;37.490;-122.288;2022-09-03T02:37:25;33.97;;;19.53;;
29466;SDS011;60968;37.490;-122.288;2022-09-03T02:40:26;34.17;;;21.37;;
29466;SDS011;60968;37.490;-122.288;2022-09-03T02:46:33;28.17;;;19.00;;
29466;SDS011;60968;37.490;-122.288;2022-09-03T02:49:38;29.07;;;18.17;;
29466;SDS011;60968;37.490;-122.288;2022-09-03T02:52:39;28.63;;;18.43;;
29466;SDS011;60968;37.490;-122.288;2022-09-03T02:55:40;28.93;;;17.67;;
29466;SDS011;60968;37.490;-122.288;2022-09-03T02:58:41;30.77;;;17.53;;
29466;SDS011;60968;37.490;-122.288;2022-09-03T03:01:42;27.33;;;18.10;;
29466;SDS011;60968;37.490;-122.288;2022-09-03T03:04:42;31.93;;;18.90;;
29466;SDS011;60968;37.490;-122.288;2022-09-03T03:07:44;28.00;;;18.00;;
29466;SDS011;60968;37.490;-122.288;2022-09-03T03:10:48;27.90;;;18.13;;
29466;SDS011;60968;37.490;-122.288;2022-09-03T03:13:52;28.97;;;17.83;;
29466;SDS011;60968;37.490;-122.288;2022-09-03T03:16:54;51.17;;;28.40;;
29466;SDS011;60968;37.490;-122.288;2022-09-03T03:19:56;30.57;;;18.37;;
29466;SDS011;60968;37.490;-122.288;2022-09-03T03:22:57;30.33;;;17.77;;
29466;SDS011;60968;37.490;-122.288;2022-09-03T03:26:01;25.77;;;16.70;;
29466;SDS011;60968;37.490;-122.288;2022-09-03T03:29:04;23.77;;;16.13;;
29466;SDS011;60968;37.490;-122.288;2022-09-03T03:32:05;23.80;;;15.50;;
29466;SDS011;60968;37.490;-122.288;2022-09-03T03:35:06;25.80;;;16.13;;
29466;SDS011;60968;37.490;-122.288;2022-09-03T03:38:07;28.97;;;16.93;;
29466;SDS011;60968;37.490;-122.288;2022-09-03T03:41:13;23.10;;;15.20;;
29466;SDS011;60968;37.490;-122.288;2022-09-03T03:44:14;25.20;;;14.27;;
29466;SDS011;60968;37.490;-122.288;2022-09-03T03:47:15;24.10;;;14.53;;
29466;SDS011;60968;37.490;-122.288;2022-09-03T03:50:16;23.17;;;15.13;;
29466;SDS011;60968;37.490;-122.288;2022-09-03T03:53:16;24.47;;;16.10;;
29466;SDS011;60968;37.490;-122.288;2022-09-03T03:56:17;25.43;;;15.10;;
29466;SDS011;60968;37.490;-122.288;2022-09-03T03:59:18;25.93;;;15.13;;
29466;SDS011;60968;37.490;-122.288;2022-09-03T04:02:19;22.57;;;15.27;;
29466;SDS011;60968;37.490;-122.288;2022-09-03T04:05:20;24.37;;;14.27;;
29466;SDS011;60968;37.490;-122.288;2022-09-03T04:08:22;25.70;;;14.67;;
29466;SDS011;60968;37.490;-122.288;2022-09-03T04:11:25;25.40;;;14.93;;
29466;SDS011;60968;37.490;-122.288;2022-09-03T04:14:26;27.60;;;15.67;;
29466;SDS011;60968;37.490;-122.288;2022-09-03T04:17:27;23.53;;;14.53;;
29466;SDS011;60968;37.490;-122.288;2022-09-03T04:20:29;22.63;;;13.10;;
29466;SDS011;60968;37.490;-122.288;2022-09-03T04:23:31;21.17;;;12.33;;
29466;SDS011;60968;37.490;-122.288;2022-09-03T04:26:33;26.30;;;13.90;;
29466;SDS011;60968;37.490;-122.288;2022-09-03T04:29:36;20.37;;;12.17;;
29466;SDS011;60968;37.490;-122.288;2022-09-03T04:32:37;19.40;;;11.27;;
29466;SDS011;60968;37.490;-122.288;2022-09-03T04:35:40;20.77;;;11.20;;
29466;SDS011;60968;37.490;-122.288;2022-09-03T04:38:42;17.83;;;9.60;;
29466;SDS011;60968;37.490;-122.288;2022-09-03T04:41:44;23.30;;;10.37;;
29466;SDS011;60968;37.490;-122.288;2022-09-03T04:44:50;20.37;;;9.93;;
29466;SDS011;60968;37.490;-122.288;2022-09-03T04:47:57;22.50;;;10.40;;
29466;SDS011;60968;37.490;-122.288;2022-09-03T04:54:07;19.07;;;8.77;;
29466;SDS011;60968;37.490;-122.288;2022-09-03T04:57:08;16.23;;;8.17;;
29466;SDS011;60968;37.490;-122.288;2022-09-03T05:00:10;24.47;;;8.90;;
29466;SDS011;60968;37.490;-122.288;2022-09-03T05:03:12;15.17;;;7.13;;
29466;SDS011;60968;37.490;-122.288;2022-09-03T05:06:14;17.00;;;7.33;;
29466;SDS011;60968;37.490;-122.288;2022-09-03T05:09:15;19.43;;;8.80;;
29466;SDS011;60968;37.490;-122.288;2022-09-03T05:12:16;20.87;;;8.10;;
29466;SDS011;60968;37.490;-122.288;2022-09-03T05:15:17;19.90;;;7.60;;
29466;SDS011;60968;37.490;-122.288;2022-09-03T05:18:17;14.03;;;7.57;;
29466;SDS011;60968;37.490;-122.288;2022-09-03T05:21:19;18.03;;;7.80;;
29466;SDS011;60968;37.490;-122.288;2022-09-03T05:24:20;20.47;;;7.50;;
29466;SDS011;60968;37.490;-122.288;2022-09-03T05:27:21;16.97;;;7.13;;
29466;SDS011;60968;37.490;-122.288;2022-09-03T05:30:21;17.90;;;7.83;;
29466;SDS011;60968;37.490;-122.288;2022-09-03T05:33:22;20.17;;;7.60;;
29466;SDS011;60968;37.490;-122.288;2022-09-03T05:36:24;15.90;;;6.87;;
29466;SDS011;60968;37.490;-122.288;2022-09-03T05:39:26;16.60;;;7.87;;
29466;SDS011;60968;37.490;-122.288;2022-09-03T05:42:28;16.30;;;7.50;;
29466;SDS011;60968;37.490;-122.288;2022-09-03T05:45:29;15.87;;;7.40;;
29466;SDS011;60968;37.490;-122.288;2022-09-03T05:48:30;15.30;;;7.00;;
29466;SDS011;60968;37.490;-122.288;2022-09-03T05:51:33;16.73;;;7.57;;
29466;SDS011;60968;37.490;-122.288;2022-09-03T05:54:36;19.00;;;8.00;;
29466;SDS011;60968;37.490;-122.288;2022-09-03T05:57:37;18.60;;;7.47;;
29466;SDS011;60968;37.490;-122.288;2022-09-03T06:00:37;14.53;;;7.33;;
29466;SDS011;60968;37.490;-122.288;2022-09-03T06:03:39;16.67;;;9.30;;
29466;SDS011;60968;37.490;-122.288;2022-09-03T06:06:42;19.50;;;7.90;;
29466;SDS011;60968;37.490;-122.288;2022-09-03T06:09:46;13.70;;;7.73;;
29466;SDS011;60968;37.490;-122.288;2022-09-03T06:12:50;16.53;;;7.37;;
29466;SDS011;60968;37.490;-122.288;2022-09-03T06:16:01;12.97;;;6.87;;
29466;SDS011;60968;37.490;-122.288;2022-09-03T06:19:04;12.50;;;6.47;;
29466;SDS011;60968;37.490;-122.288;2022-09-03T06:22:06;14.40;;;7.10;;
29466;SDS011;60968;37.490;-122.288;2022-09-03T06:25:08;11.70;;;6.70;;
29466;SDS011;60968;37.490;-122.288;2022-09-03T06:28:09;10.97;;;6.73;;
29466;SDS011;60968;37.490;-122.288;2022-09-03T06:31:11;14.57;;;7.37;;
29466;SDS011;60968;37.490;-122.288;2022-09-03T06:34:13;12.63;;;6.47;;
29466;SDS011;60968;37.490;-122.288;2022-09-03T06:37:14;18.17;;;7.37;;
29466;SDS011;60968;37.490;-122.288;2022-09-03T06:40:15;13.03;;;6.43;;
29466;SDS011;60968;37.490;-122.288;2022-09-03T06:43:21;14.97;;;7.47;;
29466;SDS011;60968;37.490;-122.288;2022-09-03T06:46:24;11.37;;;6.47;;
29466;SDS011;60968;37.490;-122.288;2022-09-03T06:49:24;13.97;;;7.20;;
29466;SDS011;60968;37.490;-122.288;2022-09-03T06:52:25;11.43;;;6.80;;
29466;SDS011;60968;37.490;-122.288;2022-09-03T06:55:27;13.60;;;7.57;;
29466;SDS011;60968;37.490;-122.288;2022-09-03T06:58:28;12.67;;;6.67;;
29466;SDS011;60968;37.490;-122.288;2022-09-03T07:01:36;12.93;;;7.20;;
29466;SDS011;60968;37.490;-122.288;2022-09-03T07:04:38;12.97;;;7.30;;
29466;SDS011;60968;37.490;-122.288;2022-09-03T07:07:39;12.53;;;6.83;;
29466;SDS011;60968;37.490;-122.288;2022-09-03T07:10:44;13.33;;;6.50;;
29466;SDS011;60968;37.490;-122.288;2022-09-03T07:13:46;15.00;;;7.40;;
29466;SDS011;60968;37.490;-122.288;2022-09-03T07:16:48;16.20;;;6.77;;
29466;SDS011;60968;37.490;-122.288;2022-09-03T07:19:51;10.43;;;6.00;;
29466;SDS011;60968;37.490;-122.288;2022-09-03T07:22:55;10.70;;;6.73;;
29466;SDS011;60968;37.490;-122.288;2022-09-03T07:25:59;14.87;;;6.10;;
29466;SDS011;60968;37.490;-122.288;2022-09-03T07:29:00;12.07;;;5.27;;
29466;SDS011;60968;37.490;-122.288;2022-09-03T07:32:02;12.57;;;6.67;;
29466;SDS011;60968;37.490;-122.288;2022-09-03T07:35:03;13.80;;;7.37;;
29466;SDS011;60968;37.490;-122.288;2022-09-03T07:38:05;16.17;;;8.03;;
29466;SDS011;60968;37.490;-122.288;2022-09-03T07:41:07;14.90;;;6.67;;
29466;SDS011;60968;37.490;-122.288;2022-09-03T07:44:10;19.80;;;8.40;;
29466;SDS011;60968;37.490;-122.288;2022-09-03T07:47:15;19.93;;;8.03;;
29466;SDS011;60968;37.490;-122.288;2022-09-03T07:50:15;26.17;;;10.67;;
29466;SDS011;60968;37.490;-122.288;2022-09-03T07:53:16;26.30;;;11.47;;
29466;SDS011;60968;37.490;-122.288;2022-09-03T07:56:18;20.67;;;11.13;;
29466;SDS011;60968;37.490;-122.288;2022-09-03T07:59:19;23.90;;;11.13;;
29466;SDS011;60968;37.490;-122.288;2022-09-03T08:02:20;24.27;;;11.90;;
29466;SDS011;60968;37.490;-122.288;2022-09-03T08:05:21;23.33;;;11.37;;
29466;SDS011;60968;37.490;-122.288;2022-09-03T08:08:21;25.40;;;12.67;;
29466;SDS011;60968;37.490;-122.288;2022-09-03T08:11:23;24.13;;;11.83;;
29466;SDS011;60968;37.490;-122.288;2022-09-03T08:14:25;23.33;;;12.23;;
29466;SDS011;60968;37.490;-122.288;2022-09-03T08:17:30;26.00;;;12.50;;
29466;SDS011;60968;37.490;-122.288;2022-09-03T08:20:32;27.97;;;12.80;;
29466;SDS011;60968;37.490;-122.288;2022-09-03T08:23:38;25.13;;;13.33;;
29466;SDS011;60968;37.490;-122.288;2022-09-03T08:26:40;29.30;;;12.30;;
29466;SDS011;60968;37.490;-122.288;2022-09-03T08:29:41;22.47;;;11.87;;
29466;SDS011;60968;37.490;-122.288;2022-09-03T08:32:44;27.53;;;11.70;;
29466;SDS011;60968;37.490;-122.288;2022-09-03T08:35:51;21.90;;;11.43;;
29466;SDS011;60968;37.490;-122.288;2022-09-03T08:38:52;25.43;;;11.63;;
29466;SDS011;60968;37.490;-122.288;2022-09-03T08:45:18;20.67;;;9.07;;
29466;SDS011;60968;37.490;-122.288;2022-09-03T08:48:20;16.70;;;8.50;;
29466;SDS011;60968;37.490;-122.288;2022-09-03T08:51:24;15.50;;;7.13;;
29466;SDS011;60968;37.490;-122.288;2022-09-03T08:54:26;15.80;;;6.90;;
29466;SDS011;60968;37.490;-122.288;2022-09-03T08:57:42;14.57;;;6.57;;
29466;SDS011;60968;37.490;-122.288;2022-09-03T09:00:49;12.57;;;5.67;;
29466;SDS011;60968;37.490;-122.288;2022-09-03T09:04:08;8.17;;;4.40;;
29466;SDS011;60968;37.490;-122.288;2022-09-03T09:07:31;8.63;;;4.30;;
29466;SDS011;60968;37.490;-122.288;2022-09-03T09:10:40;7.93;;;4.10;;
29466;SDS011;60968;37.490;-122.288;2022-09-03T09:13:50;8.57;;;3.53;;
29466;SDS011;60968;37.490;-122.288;2022-09-03T09:23:40;11.13;;;3.13;;
29466;SDS011;60968;37.490;-122.288;2022-09-03T09:26:48;7.53;;;2.73;;
29466;SDS011;60968;37.490;-122.288;2022-09-03T09:30:03;7.07;;;2.93;;
29466;SDS011;60968;37.490;-122.288;2022-09-03T09:33:05;7.30;;;3.60;;
29466;SDS011;60968;37.490;-122.288;2022-09-03T09:36:08;9.87;;;3.77;;
29466;SDS011;60968;37.490;-122.288;2022-09-03T09:39:13;10.57;;;3.40;;
29466;SDS011;60968;37.490;-122.288;2022-09-03T09:42:14;7.97;;;3.87;;
29466;SDS011;60968;37.490;-122.288;2022-09-03T09:45:15;12.53;;;4.33;;
29466;SDS011;60968;37.490;-122.288;2022-09-03T09:48:25;9.83;;;4.77;;
29466;SDS011;60968;37.490;-122.288;2022-09-03T09:51:29;7.17;;;3.10;;
29466;SDS011;60968;37.490;-122.288;2022-09-03T09:54:32;6.57;;;2.53;;
29466;SDS011;60968;37.490;-122.288;2022-09-03T09:57:34;6.87;;;2.40;;
29466;SDS011;60968;37.490;-122.288;2022-09-03T10:00:35;6.17;;;2.80;;
29466;SDS011;60968;37.490;-122.288;2022-09-03T10:03:38;7.17;;;3.67;;
29466;SDS011;60968;37.490;-122.288;2022-09-03T10:06:59;6.33;;;2.33;;
29466;SDS011;60968;37.490;-122.288;2022-09-03T10:10:22;7.40;;;2.67;;
29466;SDS011;60968;37.490;-122.288;2022-09-03T10:13:34;6.17;;;2.33;;
29466;SDS011;60968;37.490;-122.288;2022-09-03T10:16:44;8.10;;;2.77;;
29466;SDS011;60968;37.490;-122.288;2022-09-03T10:23:26;6.77;;;2.27;;
29466;SDS011;60968;37.490;-122.288;2022-09-03T10:26:33;8.53;;;2.50;;
29466;SDS011;60968;37.490;-122.288;2022-09-03T10:29:36;6.33;;;2.20;;
29466;SDS011;60968;37.490;-122.288;2022-09-03T10:32:44;8.30;;;1.83;;
29466;SDS011;60968;37.490;-122.288;2022-09-03T10:36:10;7.80;;;2.53;;
29466;SDS011;60968;37.490;-122.288;2022-09-03T10:39:21;5.27;;;1.90;;
29466;SDS011;60968;37.490;-122.288;2022-09-03T10:45:50;5.70;;;1.87;;
29466;SDS011;60968;37.490;-122.288;2022-09-03T11:08:02;3.10;;;1.70;;
29466;SDS011;60968;37.490;-122.288;2022-09-03T11:14:21;3.27;;;1.80;;
29466;SDS011;60968;37.490;-122.288;2022-09-03T11:18:21;2.63;;;1.40;;
29466;SDS011;60968;37.490;-122.288;2022-09-03T11:21:26;6.87;;;2.17;;
29466;SDS011;60968;37.490;-122.288;2022-09-03T11:24:29;7.33;;;2.40;;
29466;SDS011;60968;37.490;-122.288;2022-09-03T11:34:11;4.23;;;1.67;;
29466;SDS011;60968;37.490;-122.288;2022-09-03T11:37:26;16.20;;;3.87;;
29466;SDS011;60968;37.490;-122.288;2022-09-03T11:40:38;10.27;;;3.90;;
29466;SDS011;60968;37.490;-122.288;2022-09-03T11:43:55;6.20;;;3.33;;
29466;SDS011;60968;37.490;-122.288;2022-09-03T11:46:56;7.03;;;3.37;;
29466;SDS011;60968;37.490;-122.288;2022-09-03T11:50:04;4.70;;;2.07;;
29466;SDS011;60968;37.490;-122.288;2022-09-03T11:53:09;8.80;;;1.73;;
29466;SDS011;60968;37.490;-122.288;2022-09-03T11:56:23;3.77;;;1.30;;
29466;SDS011;60968;37.490;-122.288;2022-09-03T11:59:24;4.63;;;1.30;;
29466;SDS011;60968;37.490;-122.288;2022-09-03T12:02:29;3.37;;;1.27;;
29466;SDS011;60968;37.490;-122.288;2022-09-03T12:13:21;6.50;;;1.30;;
29466;SDS011;60968;37.490;-122.288;2022-09-03T12:16:24;2.13;;;1.07;;
29466;SDS011;60968;37.490;-122.288;2022-09-03T12:22:44;9.03;;;3.23;;
29466;SDS011;60968;37.490;-122.288;2022-09-03T12:25:45;6.10;;;3.20;;
29466;SDS011;60968;37.490;-122.288;2022-09-03T12:28:50;11.70;;;4.03;;
29466;SDS011;60968;37.490;-122.288;2022-09-03T12:32:05;11.53;;;4.47;;
29466;SDS011;60968;37.490;-122.288;2022-09-03T12:35:20;10.43;;;3.97;;
29466;SDS011;60968;37.490;-122.288;2022-09-03T12:38:25;14.10;;;5.50;;
29466;SDS011;60968;37.490;-122.288;2022-09-03T12:41:28;14.57;;;5.90;;
29466;SDS011;60968;37.490;-122.288;2022-09-03T12:44:39;14.30;;;5.80;;
29466;SDS011;60968;37.490;-122.288;2022-09-03T12:47:43;14.90;;;5.40;;
29466;SDS011;60968;37.490;-122.288;2022-09-03T12:50:45;10.37;;;4.00;;
29466;SDS011;60968;37.490;-122.288;2022-09-03T12:53:50;8.00;;;3.10;;
29466;SDS011;60968;37.490;-122.288;2022-09-03T12:56:55;8.03;;;3.87;;
29466;SDS011;60968;37.490;-122.288;2022-09-03T13:00:02;5.40;;;2.40;;
29466;SDS011;60968;37.490;-122.288;2022-09-03T13:03:10;6.23;;;2.50;;
29466;SDS011;60968;37.490;-122.288;2022-09-03T13:06:19;5.47;;;1.90;;
29466;SDS011;60968;37.490;-122.288;2022-09-03T13:09:23;5.37;;;1.50;;
29466;SDS011;60968;37.490;-122.288;2022-09-03T13:13:27;3.90;;;1.70;;
29466;SDS011;60968;37.490;-122.288;2022-09-03T13:19:34;6.67;;;1.73;;
29466;SDS011;60968;37.490;-122.288;2022-09-03T13:26:31;6.13;;;2.20;;
29466;SDS011;60968;37.490;-122.288;2022-09-03T13:36:32;4.63;;;1.67;;
29466;SDS011;60968;37.490;-122.288;2022-09-03T13:39:48;4.53;;;1.80;;
29466;SDS011;60968;37.490;-122.288;2022-09-03T13:43:01;5.97;;;2.57;;
29466;SDS011;60968;37.490;-122.288;2022-09-03T13:46:22;4.67;;;2.00;;
29466;SDS011;60968;37.490;-122.288;2022-09-03T13:56:22;6.80;;;2.20;;
29466;SDS011;60968;37.490;-122.288;2022-09-03T14:09:57;5.27;;;2.73;;
29466;SDS011;60968;37.490;-122.288;2022-09-03T14:16:54;6.80;;;2.97;;
29466;SDS011;60968;37.490;-122.288;2022-09-03T14:20:12;7.43;;;2.97;;
29466;SDS011;60968;37.490;-122.288;2022-09-03T14:26:49;4.50;;;2.90;;
29466;SDS011;60968;37.490;-122.288;2022-09-03T14:30:05;4.97;;;3.23;;
29466;SDS011;60968;37.490;-122.288;2022-09-03T14:33:23;7.10;;;3.87;;
29466;SDS011;60968;37.490;-122.288;2022-09-03T14:36:54;6.57;;;3.43;;
29466;SDS011;60968;37.490;-122.288;2022-09-03T14:40:18;9.80;;;4.00;;
29466;SDS011;60968;37.490;-122.288;2022-09-03T14:43:51;6.00;;;3.40;;
29466;SDS011;60968;37.490;-122.288;2022-09-03T14:54:48;10.60;;;5.13;;
29466;SDS011;60968;37.490;-122.288;2022-09-03T15:01:22;9.50;;;5.10;;
29466;SDS011;60968;37.490;-122.288;2022-09-03T15:11:17;10.82;;;5.93;;
29466;SDS011;60968;37.490;-122.288;2022-09-03T15:14:28;15.20;;;7.25;;
29466;SDS011;60968;37.490;-122.288;2022-09-03T15:21:27;12.32;;;6.93;;
29466;SDS011;60968;37.490;-122.288;2022-09-03T15:31:04;15.15;;;8.23;;
29466;SDS011;60968;37.490;-122.288;2022-09-03T15:37:36;13.82;;;8.40;;
29466;SDS011;60968;37.490;-122.288;2022-09-03T15:43:47;12.55;;;9.35;;
29466;SDS011;60968;37.490;-122.288;2022-09-03T15:50:02;16.13;;;8.05;;
29466;SDS011;60968;37.490;-122.288;2022-09-03T15:53:20;12.77;;;7.22;;
29466;SDS011;60968;37.490;-122.288;2022-09-03T16:00:38;14.40;;;7.32;;
29466;SDS011;60968;37.490;-122.288;2022-09-03T16:07:26;14.00;;;7.47;;
29466;SDS011;60968;37.490;-122.288;2022-09-03T16:10:44;13.75;;;6.50;;
29466;SDS011;60968;37.490;-122.288;2022-09-03T16:17:38;12.88;;;6.75;;
29466;SDS011;60968;37.490;-122.288;2022-09-03T16:27:28;16.93;;;6.67;;
29466;SDS011;60968;37.490;-122.288;2022-09-03T16:31:12;10.57;;;6.20;;
29466;SDS011;60968;37.490;-122.288;2022-09-03T16:51:53;13.17;;;6.33;;
29466;SDS011;60968;37.490;-122.288;2022-09-03T16:58:29;14.30;;;6.50;;
29466;SDS011;60968;37.490;-122.288;2022-09-03T17:05:36;15.88;;;7.35;;
29466;SDS011;60968;37.490;-122.288;2022-09-03T17:12:36;21.00;;;9.13;;
29466;SDS011;60968;37.490;-122.288;2022-09-03T17:16:07;18.45;;;9.15;;
29466;SDS011;60968;37.490;-122.288;2022-09-03T17:19:27;16.40;;;9.30;;
29466;SDS011;60968;37.490;-122.288;2022-09-03T17:36:29;17.75;;;11.23;;
29466;SDS011;60968;37.490;-122.288;2022-09-03T17:39:52;14.00;;;10.68;;
29466;SDS011;60968;37.490;-122.288;2022-09-03T17:46:31;12.65;;;9.95;;
29466;SDS011;60968;37.490;-122.288;2022-09-03T17:49:46;18.10;;;12.18;;
29466;SDS011;60968;37.490;-122.288;2022-09-03T17:53:09;17.63;;;11.90;;
29466;SDS011;60968;37.490;-122.288;2022-09-03T18:00:05;15.80;;;11.45;;
29466;SDS011;60968;37.490;-122.288;2022-09-03T18:03:29;15.52;;;9.70;;
29466;SDS011;60968;37.490;-122.288;2022-09-03T18:13:46;20.30;;;7.90;;
29466;SDS011;60968;37.490;-122.288;2022-09-03T18:17:14;13.60;;;7.18;;
29466;SDS011;60968;37.490;-122.288;2022-09-03T18:20:43;23.38;;;7.72;;
29466;SDS011;60968;37.490;-122.288;2022-09-03T18:27:21;20.10;;;8.30;;
29466;SDS011;60968;37.490;-122.288;2022-09-03T18:30:37;16.25;;;7.80;;
29466;SDS011;60968;37.490;-122.288;2022-09-03T18:33:39;16.77;;;8.27;;
29466;SDS011;60968;37.490;-122.288;2022-09-03T18:36:40;22.35;;;8.68;;
29466;SDS011;60968;37.490;-122.288;2022-09-03T18:39:43;18.38;;;8.27;;
29466;SDS011;60968;37.490;-122.288;2022-09-03T18:42:56;16.17;;;7.45;;
29466;SDS011;60968;37.490;-122.288;2022-09-03T18:49:57;18.45;;;8.15;;
29466;SDS011;60968;37.490;-122.288;2022-09-03T18:52:50;17.73;;;8.07;;
29466;SDS011;60968;37.490;-122.288;2022-09-03T19:09:48;17.98;;;9.40;;
29466;SDS011;60968;37.490;-122.288;2022-09-03T19:16:43;16.15;;;8.30;;
29466;SDS011;60968;37.490;-122.288;2022-09-03T19:19:52;17.33;;;8.43;;
29466;SDS011;60968;37.490;-122.288;2022-09-03T19:23:08;16.40;;;9.43;;
29466;SDS011;60968;37.490;-122.288;2022-09-03T19:26:28;15.48;;;8.65;;
29466;SDS011;60968;37.490;-122.288;2022-09-03T19:30:08;17.88;;;8.98;;
29466;SDS011;60968;37.490;-122.288;2022-09-03T19:33:37;21.67;;;9.73;;
29466;SDS011;60968;37.490;-122.288;2022-09-03T19:40:38;24.55;;;9.30;;
29466;SDS011;60968;37.490;-122.288;2022-09-03T19:47:45;18.17;;;9.50;;
29466;SDS011;60968;37.490;-122.288;2022-09-03T19:51:11;15.75;;;8.35;;
29466;SDS011;60968;37.490;-122.288;2022-09-03T19:54:17;16.23;;;9.05;;
29466;SDS011;60968;37.490;-122.288;2022-09-03T19:57:22;18.40;;;9.40;;
29466;SDS011;60968;37.490;-122.288;2022-09-03T20:00:25;15.10;;;8.13;;
29466;SDS011;60968;37.490;-122.288;2022-09-03T20:03:28;18.30;;;8.05;;
29466;SDS011;60968;37.490;-122.288;2022-09-03T20:06:30;14.73;;;7.13;;
29466;SDS011;60968;37.490;-122.288;2022-09-03T20:09:36;16.90;;;7.82;;
29466;SDS011;60968;37.490;-122.288;2022-09-03T20:12:43;18.38;;;8.30;;
29466;SDS011;60968;37.490;-122.288;2022-09-03T20:16:12;11.80;;;6.93;;
29466;SDS011;60968;37.490;-122.288;2022-09-03T20:22:55;11.65;;;6.55;;
29466;SDS011;60968;37.490;-122.288;2022-09-03T20:29:50;10.57;;;6.07;;
29466;SDS011;60968;37.490;-122.288;2022-09-03T20:43:28;16.42;;;6.35;;
29466;SDS011;60968;37.490;-122.288;2022-09-03T20:57:27;12.88;;;5.72;;
29466;SDS011;60968;37.490;-122.288;2022-09-03T21:01:19;8.88;;;3.85;;
29466;SDS011;60968;37.490;-122.288;2022-09-03T21:07:19;6.65;;;3.95;;
29466;SDS011;60968;37.490;-122.288;2022-09-03T21:10:51;6.55;;;3.53;;
29466;SDS011;60968;37.490;-122.288;2022-09-03T21:24:00;6.72;;;3.63;;
29466;SDS011;60968;37.490;-122.288;2022-09-03T21:27:14;5.85;;;3.53;;
29466;SDS011;60968;37.490;-122.288;2022-09-03T21:30:18;9.35;;;3.20;;
29466;SDS011;60968;37.490;-122.288;2022-09-03T21:33:28;6.40;;;3.15;;
29466;SDS011;60968;37.490;-122.288;2022-09-03T21:36:34;9.02;;;2.80;;
29466;SDS011;60968;37.490;-122.288;2022-09-03T21:39:41;10.73;;;3.08;;
29466;SDS011;60968;37.490;-122.288;2022-09-03T21:42:50;5.70;;;3.13;;
29466;SDS011;60968;37.490;-122.288;2022-09-03T21:49:11;7.78;;;3.35;;
29466;SDS011;60968;37.490;-122.288;2022-09-03T21:52:18;5.20;;;2.92;;
29466;SDS011;60968;37.490;-122.288;2022-09-03T22:02:38;4.25;;;2.75;;
29466;SDS011;60968;37.490;-122.288;2022-09-03T22:06:22;6.82;;;2.65;;
29466;SDS011;60968;37.490;-122.288;2022-09-03T22:09:22;6.43;;;2.60;;
29466;SDS011;60968;37.490;-122.288;2022-09-03T22:15:56;8.02;;;2.90;;
29466;SDS011;60968;37.490;-122.288;2022-09-03T22:19:04;6.00;;;2.85;;
29466;SDS011;60968;37.490;-122.288;2022-09-03T22:22:17;6.05;;;2.72;;
29466;SDS011;60968;37.490;-122.288;2022-09-03T22:25:48;9.00;;;3.10;;
29466;SDS011;60968;37.490;-122.288;2022-09-03T22:29:02;4.43;;;2.60;;
29466;SDS011;60968;37.490;-122.288;2022-09-03T22:32:29;5.53;;;2.78;;
29466;SDS011;60968;37.490;-122.288;2022-09-03T22:46:14;7.28;;;2.55;;
29466;SDS011;60968;37.490;-122.288;2022-09-03T22:52:34;5.53;;;2.63;;
29466;SDS011;60968;37.490;-122.288;2022-09-03T22:55:46;6.60;;;2.47;;
29466;SDS011;60968;37.490;-122.288;2022-09-03T22:59:09;3.33;;;2.15;;
29466;SDS011;60968;37.490;-122.288;2022-09-03T23:02:26;6.32;;;2.30;;
29466;SDS011;60968;37.490;-122.288;2022-09-03T23:05:51;5.03;;;2.00;;
29466;SDS011;60968;37.490;-122.288;2022-09-03T23:08:56;4.35;;;2.28;;
29466;SDS011;60968;37.490;-122.288;2022-09-03T23:12:09;3.72;;;1.98;;
29466;SDS011;60968;37.490;-122.288;2022-09-03T23:15:21;4.30;;;2.00;;
29466;SDS011;60968;37.490;-122.288;2022-09-03T23:18:24;5.78;;;1.88;;
29466;SDS011;60968;37.490;-122.288;2022-09-03T23:28:17;3.42;;;1.85;;
29466;SDS011;60968;37.490;-122.288;2022-09-03T23:31:34;4.57;;;1.65;;
29466;SDS011;60968;37.490;-122.288;2022-09-03T23:34:36;3.75;;;1.85;;
29466;SDS011;60968;37.490;-122.288;2022-09-03T23:40:54;2.67;;;1.63;;
29466;SDS011;60968;37.490;-122.288;2022-09-03T23:44:02;6.63;;;2.28;;
29466;SDS011;60968;37.490;-122.288;2022-09-03T23:51:54;7.50;;;2.33;;
29466;SDS011;60968;37.490;-122.288;2022-09-03T23:54:39;6.78;;;2.10;;
29466;SDS011;60968;37.490;-122.288;2022-09-03T23:57:53;4.90;;;1.90;;
